sensor_id;sensor_type;location;lat;lon;timestamp;temperature;humidity
528;DHT22;250;47.712;7.508;2022-08-03T00:00:54;22.70;25.60
528;DHT22;250;47.712;7.508;2022-08-03T00:03:21;22.70;25.50
528;DHT22;250;47.712;7.508;2022-08-03T00:05:49;22.80;25.40
528;DHT22;250;47.712;7.508;2022-08-03T00:08:17;22.70;25.30
528;DHT22;250;47.712;7.508;2022-08-03T00:10:44;22.70;25.20
528;DHT22;250;47.712;7.508;2022-08-03T00:13:11;22.80;25.30
528;DHT22;250;47.712;7.508;2022-08-03T00:15:39;22.70;25.70
528;DHT22;250;47.712;7.508;2022-08-03T00:18:06;22.60;25.70
528;DHT22;250;47.712;7.508;2022-08-03T00:20:34;22.60;26.60
528;DHT22;250;47.712;7.508;2022-08-03T00:23:03;22.60;26.50
528;DHT22;250;47.712;7.508;2022-08-03T00:25:32;22.60;26.30
528;DHT22;250;47.712;7.508;2022-08-03T00:27:59;22.60;25.80
528;DHT22;250;47.712;7.508;2022-08-03T00:30:26;22.60;25.40
528;DHT22;250;47.712;7.508;2022-08-03T00:32:53;22.50;25.20
528;DHT22;250;47.712;7.508;2022-08-03T00:35:20;22.50;25.30
528;DHT22;250;47.712;7.508;2022-08-03T00:37:47;22.50;24.90
528;DHT22;250;47.712;7.508;2022-08-03T00:40:17;22.50;25.10
528;DHT22;250;47.712;7.508;2022-08-03T00:42:49;22.40;26.00
528;DHT22;250;47.712;7.508;2022-08-03T00:45:17;22.40;26.60
528;DHT22;250;47.712;7.508;2022-08-03T00:47:46;22.40;26.90
528;DHT22;250;47.712;7.508;2022-08-03T00:50:14;22.40;26.90
528;DHT22;250;47.712;7.508;2022-08-03T00:52:42;22.30;26.80
528;DHT22;250;47.712;7.508;2022-08-03T00:55:09;22.20;26.70
528;DHT22;250;47.712;7.508;2022-08-03T00:57:38;22.20;26.90
528;DHT22;250;47.712;7.508;2022-08-03T01:00:07;22.10;27.50
528;DHT22;250;47.712;7.508;2022-08-03T01:02:35;22.10;27.90
528;DHT22;250;47.712;7.508;2022-08-03T01:05:03;22.10;27.70
528;DHT22;250;47.712;7.508;2022-08-03T01:07:41;22.20;27.20
528;DHT22;250;47.712;7.508;2022-08-03T01:10:18;22.10;26.60
528;DHT22;250;47.712;7.508;2022-08-03T01:12:56;21.90;26.50
528;DHT22;250;47.712;7.508;2022-08-03T01:15:29;21.80;26.60
528;DHT22;250;47.712;7.508;2022-08-03T01:18:02;21.70;27.00
528;DHT22;250;47.712;7.508;2022-08-03T01:20:33;21.70;27.00
528;DHT22;250;47.712;7.508;2022-08-03T01:23:27;21.70;27.10
528;DHT22;250;47.712;7.508;2022-08-03T01:26:23;21.80;26.70
528;DHT22;250;47.712;7.508;2022-08-03T01:29:05;21.90;26.50
528;DHT22;250;47.712;7.508;2022-08-03T01:31:39;21.90;27.50
528;DHT22;250;47.712;7.508;2022-08-03T01:34:10;21.90;27.20
528;DHT22;250;47.712;7.508;2022-08-03T01:36:42;22.00;27.50
528;DHT22;250;47.712;7.508;2022-08-03T01:39:10;21.90;28.00
528;DHT22;250;47.712;7.508;2022-08-03T01:41:54;21.80;28.40
528;DHT22;250;47.712;7.508;2022-08-03T01:44:25;21.80;28.60
528;DHT22;250;47.712;7.508;2022-08-03T01:46:57;21.80;28.40
528;DHT22;250;47.712;7.508;2022-08-03T01:49:26;21.80;28.40
528;DHT22;250;47.712;7.508;2022-08-03T01:51:54;21.70;28.30
528;DHT22;250;47.712;7.508;2022-08-03T01:54:23;21.70;28.30
528;DHT22;250;47.712;7.508;2022-08-03T01:56:52;21.70;28.20
528;DHT22;250;47.712;7.508;2022-08-03T01:59:21;21.70;28.40
528;DHT22;250;47.712;7.508;2022-08-03T02:01:49;21.70;28.70
528;DHT22;250;47.712;7.508;2022-08-03T02:04:18;21.60;28.90
528;DHT22;250;47.712;7.508;2022-08-03T02:06:47;21.60;29.10
528;DHT22;250;47.712;7.508;2022-08-03T02:09:16;21.50;29.00
528;DHT22;250;47.712;7.508;2022-08-03T02:11:45;21.40;29.20
528;DHT22;250;47.712;7.508;2022-08-03T02:14:14;21.40;28.90
528;DHT22;250;47.712;7.508;2022-08-03T02:16:42;21.40;28.80
528;DHT22;250;47.712;7.508;2022-08-03T02:19:11;21.40;28.90
528;DHT22;250;47.712;7.508;2022-08-03T02:21:40;21.30;28.90
528;DHT22;250;47.712;7.508;2022-08-03T02:24:10;21.30;28.80
528;DHT22;250;47.712;7.508;2022-08-03T02:26:38;21.40;28.70
528;DHT22;250;47.712;7.508;2022-08-03T02:29:11;21.40;28.50
528;DHT22;250;47.712;7.508;2022-08-03T02:31:40;21.30;29.20
528;DHT22;250;47.712;7.508;2022-08-03T02:34:15;21.30;28.70
528;DHT22;250;47.712;7.508;2022-08-03T02:36:47;21.30;28.80
528;DHT22;250;47.712;7.508;2022-08-03T02:39:18;21.30;28.50
528;DHT22;250;47.712;7.508;2022-08-03T02:41:50;21.30;28.60
528;DHT22;250;47.712;7.508;2022-08-03T02:44:20;21.30;28.50
528;DHT22;250;47.712;7.508;2022-08-03T02:46:54;21.30;28.50
528;DHT22;250;47.712;7.508;2022-08-03T02:49:24;21.30;28.60
528;DHT22;250;47.712;7.508;2022-08-03T02:51:54;21.30;28.70
528;DHT22;250;47.712;7.508;2022-08-03T02:54:24;21.20;28.90
528;DHT22;250;47.712;7.508;2022-08-03T02:56:53;21.20;29.00
528;DHT22;250;47.712;7.508;2022-08-03T02:59:22;21.20;29.00
528;DHT22;250;47.712;7.508;2022-08-03T03:01:50;21.20;28.90
528;DHT22;250;47.712;7.508;2022-08-03T03:04:20;21.20;28.90
528;DHT22;250;47.712;7.508;2022-08-03T03:06:49;21.20;29.20
528;DHT22;250;47.712;7.508;2022-08-03T03:09:18;21.10;29.20
528;DHT22;250;47.712;7.508;2022-08-03T03:11:48;21.00;29.30
528;DHT22;250;47.712;7.508;2022-08-03T03:14:16;21.00;28.90
528;DHT22;250;47.712;7.508;2022-08-03T03:16:46;20.90;28.90
528;DHT22;250;47.712;7.508;2022-08-03T03:19:14;20.90;29.00
528;DHT22;250;47.712;7.508;2022-08-03T03:21:42;20.90;28.50
528;DHT22;250;47.712;7.508;2022-08-03T03:24:09;20.90;28.40
528;DHT22;250;47.712;7.508;2022-08-03T03:26:38;20.90;28.30
528;DHT22;250;47.712;7.508;2022-08-03T03:29:06;20.90;28.20
528;DHT22;250;47.712;7.508;2022-08-03T03:31:34;20.90;27.90
528;DHT22;250;47.712;7.508;2022-08-03T03:34:02;21.00;27.70
528;DHT22;250;47.712;7.508;2022-08-03T03:36:29;21.00;27.80
528;DHT22;250;47.712;7.508;2022-08-03T03:38:56;21.00;27.90
528;DHT22;250;47.712;7.508;2022-08-03T03:41:24;21.00;27.90
528;DHT22;250;47.712;7.508;2022-08-03T03:43:52;21.00;28.10
528;DHT22;250;47.712;7.508;2022-08-03T03:46:20;20.90;28.10
528;DHT22;250;47.712;7.508;2022-08-03T03:48:47;20.90;28.30
528;DHT22;250;47.712;7.508;2022-08-03T03:51:14;20.90;28.20
528;DHT22;250;47.712;7.508;2022-08-03T03:53:55;20.90;28.30
528;DHT22;250;47.712;7.508;2022-08-03T03:56:22;20.90;28.30
528;DHT22;250;47.712;7.508;2022-08-03T03:58:50;20.90;28.40
528;DHT22;250;47.712;7.508;2022-08-03T04:01:18;20.80;28.20
528;DHT22;250;47.712;7.508;2022-08-03T04:03:45;20.80;28.30
528;DHT22;250;47.712;7.508;2022-08-03T04:06:13;20.80;28.30
528;DHT22;250;47.712;7.508;2022-08-03T04:08:58;20.80;28.20
528;DHT22;250;47.712;7.508;2022-08-03T04:11:46;20.90;27.70
528;DHT22;250;47.712;7.508;2022-08-03T04:14:18;20.90;27.60
528;DHT22;250;47.712;7.508;2022-08-03T04:16:49;20.90;28.00
528;DHT22;250;47.712;7.508;2022-08-03T04:19:21;21.00;27.40
528;DHT22;250;47.712;7.508;2022-08-03T04:21:53;21.00;27.50
528;DHT22;250;47.712;7.508;2022-08-03T04:24:23;21.00;27.50
528;DHT22;250;47.712;7.508;2022-08-03T04:26:51;20.90;27.60
528;DHT22;250;47.712;7.508;2022-08-03T04:29:20;20.90;27.50
528;DHT22;250;47.712;7.508;2022-08-03T04:31:49;20.90;27.50
528;DHT22;250;47.712;7.508;2022-08-03T04:34:18;21.00;27.50
528;DHT22;250;47.712;7.508;2022-08-03T04:36:48;21.00;27.50
528;DHT22;250;47.712;7.508;2022-08-03T04:39:22;20.90;27.70
528;DHT22;250;47.712;7.508;2022-08-03T04:41:52;20.90;27.70
528;DHT22;250;47.712;7.508;2022-08-03T04:44:22;20.90;27.80
528;DHT22;250;47.712;7.508;2022-08-03T04:46:52;20.90;28.00
528;DHT22;250;47.712;7.508;2022-08-03T04:49:20;20.90;28.00
528;DHT22;250;47.712;7.508;2022-08-03T04:51:48;20.90;28.10
528;DHT22;250;47.712;7.508;2022-08-03T04:54:15;20.90;28.30
528;DHT22;250;47.712;7.508;2022-08-03T04:56:43;20.90;28.40
528;DHT22;250;47.712;7.508;2022-08-03T04:59:10;20.90;28.90
528;DHT22;250;47.712;7.508;2022-08-03T05:01:38;20.90;28.50
528;DHT22;250;47.712;7.508;2022-08-03T05:04:07;20.90;28.60
528;DHT22;250;47.712;7.508;2022-08-03T05:06:34;20.90;28.60
528;DHT22;250;47.712;7.508;2022-08-03T05:09:01;21.00;28.30
528;DHT22;250;47.712;7.508;2022-08-03T05:11:28;21.00;27.90
528;DHT22;250;47.712;7.508;2022-08-03T05:13:55;21.10;27.60
528;DHT22;250;47.712;7.508;2022-08-03T05:16:22;21.00;27.90
528;DHT22;250;47.712;7.508;2022-08-03T05:18:50;21.10;27.80
528;DHT22;250;47.712;7.508;2022-08-03T05:21:18;21.10;28.00
528;DHT22;250;47.712;7.508;2022-08-03T05:23:45;21.10;28.00
528;DHT22;250;47.712;7.508;2022-08-03T05:26:12;21.10;28.40
528;DHT22;250;47.712;7.508;2022-08-03T05:28:40;21.20;27.50
528;DHT22;250;47.712;7.508;2022-08-03T05:31:07;21.20;27.60
528;DHT22;250;47.712;7.508;2022-08-03T05:33:34;21.20;27.60
528;DHT22;250;47.712;7.508;2022-08-03T05:36:01;21.20;27.90
528;DHT22;250;47.712;7.508;2022-08-03T05:38:29;21.20;28.10
528;DHT22;250;47.712;7.508;2022-08-03T05:40:57;21.30;27.90
528;DHT22;250;47.712;7.508;2022-08-03T05:43:24;21.30;27.90
528;DHT22;250;47.712;7.508;2022-08-03T05:45:51;21.30;27.90
528;DHT22;250;47.712;7.508;2022-08-03T05:48:19;21.40;28.10
528;DHT22;250;47.712;7.508;2022-08-03T05:50:46;21.50;27.60
528;DHT22;250;47.712;7.508;2022-08-03T05:53:13;21.50;27.80
528;DHT22;250;47.712;7.508;2022-08-03T05:55:42;21.60;27.60
528;DHT22;250;47.712;7.508;2022-08-03T05:58:09;21.70;27.40
528;DHT22;250;47.712;7.508;2022-08-03T06:00:36;21.70;27.20
528;DHT22;250;47.712;7.508;2022-08-03T06:03:03;21.70;27.50
528;DHT22;250;47.712;7.508;2022-08-03T06:05:30;21.80;28.00
528;DHT22;250;47.712;7.508;2022-08-03T06:08:01;21.80;28.10
528;DHT22;250;47.712;7.508;2022-08-03T06:10:28;21.80;28.00
528;DHT22;250;47.712;7.508;2022-08-03T06:12:56;21.90;27.80
528;DHT22;250;47.712;7.508;2022-08-03T06:15:23;22.00;27.60
528;DHT22;250;47.712;7.508;2022-08-03T06:17:51;22.10;27.30
528;DHT22;250;47.712;7.508;2022-08-03T06:20:19;22.20;26.90
528;DHT22;250;47.712;7.508;2022-08-03T06:22:47;22.20;27.00
528;DHT22;250;47.712;7.508;2022-08-03T06:25:14;22.30;27.10
528;DHT22;250;47.712;7.508;2022-08-03T06:27:42;22.40;26.90
528;DHT22;250;47.712;7.508;2022-08-03T06:30:11;22.50;27.00
528;DHT22;250;47.712;7.508;2022-08-03T06:32:39;22.60;27.00
528;DHT22;250;47.712;7.508;2022-08-03T06:35:07;22.60;26.80
528;DHT22;250;47.712;7.508;2022-08-03T06:37:41;22.70;26.70
528;DHT22;250;47.712;7.508;2022-08-03T06:40:10;22.70;26.80
528;DHT22;250;47.712;7.508;2022-08-03T06:42:38;22.80;26.80
528;DHT22;250;47.712;7.508;2022-08-03T06:45:06;22.80;26.50
528;DHT22;250;47.712;7.508;2022-08-03T06:47:35;22.90;26.10
528;DHT22;250;47.712;7.508;2022-08-03T06:50:03;22.90;25.90
528;DHT22;250;47.712;7.508;2022-08-03T06:52:30;23.00;25.70
528;DHT22;250;47.712;7.508;2022-08-03T06:54:57;23.10;25.20
528;DHT22;250;47.712;7.508;2022-08-03T06:57:25;23.20;24.40
528;DHT22;250;47.712;7.508;2022-08-03T06:59:52;23.30;24.20
528;DHT22;250;47.712;7.508;2022-08-03T07:02:19;23.30;24.40
528;DHT22;250;47.712;7.508;2022-08-03T07:04:47;23.40;23.90
528;DHT22;250;47.712;7.508;2022-08-03T07:07:14;23.40;23.90
528;DHT22;250;47.712;7.508;2022-08-03T07:09:41;23.50;23.60
528;DHT22;250;47.712;7.508;2022-08-03T07:12:09;23.60;23.70
528;DHT22;250;47.712;7.508;2022-08-03T07:14:36;23.60;23.70
528;DHT22;250;47.712;7.508;2022-08-03T07:17:03;23.70;23.80
528;DHT22;250;47.712;7.508;2022-08-03T07:19:30;23.70;23.70
528;DHT22;250;47.712;7.508;2022-08-03T07:21:58;23.80;25.60
528;DHT22;250;47.712;7.508;2022-08-03T07:24:25;23.80;24.90
528;DHT22;250;47.712;7.508;2022-08-03T07:26:52;23.90;24.20
528;DHT22;250;47.712;7.508;2022-08-03T07:29:19;24.00;24.40
528;DHT22;250;47.712;7.508;2022-08-03T07:31:46;24.10;23.60
528;DHT22;250;47.712;7.508;2022-08-03T07:34:13;24.20;22.80
528;DHT22;250;47.712;7.508;2022-08-03T07:36:41;24.20;22.30
528;DHT22;250;47.712;7.508;2022-08-03T07:39:09;24.30;22.80
528;DHT22;250;47.712;7.508;2022-08-03T07:41:36;24.40;23.30
528;DHT22;250;47.712;7.508;2022-08-03T07:44:03;24.40;22.70
528;DHT22;250;47.712;7.508;2022-08-03T07:46:30;24.50;22.60
528;DHT22;250;47.712;7.508;2022-08-03T07:48:58;24.60;22.20
528;DHT22;250;47.712;7.508;2022-08-03T07:51:25;24.70;21.70
528;DHT22;250;47.712;7.508;2022-08-03T07:53:52;24.70;21.80
528;DHT22;250;47.712;7.508;2022-08-03T07:56:23;24.80;23.50
528;DHT22;250;47.712;7.508;2022-08-03T07:58:50;24.90;23.20
528;DHT22;250;47.712;7.508;2022-08-03T08:01:17;25.00;23.90
528;DHT22;250;47.712;7.508;2022-08-03T08:03:44;25.10;22.90
528;DHT22;250;47.712;7.508;2022-08-03T08:06:11;25.20;22.50
528;DHT22;250;47.712;7.508;2022-08-03T08:08:39;25.30;22.00
528;DHT22;250;47.712;7.508;2022-08-03T08:11:06;25.30;21.80
528;DHT22;250;47.712;7.508;2022-08-03T08:13:35;25.40;21.70
528;DHT22;250;47.712;7.508;2022-08-03T08:16:03;25.50;21.20
528;DHT22;250;47.712;7.508;2022-08-03T08:18:30;25.60;20.90
528;DHT22;250;47.712;7.508;2022-08-03T08:20:57;25.60;20.80
528;DHT22;250;47.712;7.508;2022-08-03T08:23:26;25.60;19.90
528;DHT22;250;47.712;7.508;2022-08-03T08:25:53;25.70;19.00
528;DHT22;250;47.712;7.508;2022-08-03T08:28:21;25.80;19.00
528;DHT22;250;47.712;7.508;2022-08-03T08:30:49;25.90;18.70
528;DHT22;250;47.712;7.508;2022-08-03T08:33:16;25.90;18.10
528;DHT22;250;47.712;7.508;2022-08-03T08:35:43;26.00;18.00
528;DHT22;250;47.712;7.508;2022-08-03T08:38:11;26.10;17.90
528;DHT22;250;47.712;7.508;2022-08-03T08:40:38;26.20;18.20
528;DHT22;250;47.712;7.508;2022-08-03T08:43:06;26.20;17.00
528;DHT22;250;47.712;7.508;2022-08-03T08:45:33;26.20;17.00
528;DHT22;250;47.712;7.508;2022-08-03T08:48:03;26.20;17.50
528;DHT22;250;47.712;7.508;2022-08-03T08:50:31;26.20;16.30
528;DHT22;250;47.712;7.508;2022-08-03T08:53:01;26.20;16.10
528;DHT22;250;47.712;7.508;2022-08-03T08:55:29;26.30;17.00
528;DHT22;250;47.712;7.508;2022-08-03T08:57:58;26.40;16.80
528;DHT22;250;47.712;7.508;2022-08-03T09:00:27;26.50;16.50
528;DHT22;250;47.712;7.508;2022-08-03T09:02:55;26.60;17.00
528;DHT22;250;47.712;7.508;2022-08-03T09:05:24;26.60;16.10
528;DHT22;250;47.712;7.508;2022-08-03T09:07:51;26.50;16.30
528;DHT22;250;47.712;7.508;2022-08-03T09:10:18;26.60;16.70
528;DHT22;250;47.712;7.508;2022-08-03T09:12:48;26.70;16.30
528;DHT22;250;47.712;7.508;2022-08-03T09:15:21;26.90;16.00
528;DHT22;250;47.712;7.508;2022-08-03T09:17:49;26.80;16.00
528;DHT22;250;47.712;7.508;2022-08-03T09:20:18;26.90;15.80
528;DHT22;250;47.712;7.508;2022-08-03T09:22:55;26.90;15.50
528;DHT22;250;47.712;7.508;2022-08-03T09:25:30;26.90;15.70
528;DHT22;250;47.712;7.508;2022-08-03T09:28:06;27.00;15.80
528;DHT22;250;47.712;7.508;2022-08-03T09:30:34;27.20;15.10
528;DHT22;250;47.712;7.508;2022-08-03T09:33:02;27.20;15.20
528;DHT22;250;47.712;7.508;2022-08-03T09:35:30;27.20;15.10
528;DHT22;250;47.712;7.508;2022-08-03T09:38:12;27.30;15.20
528;DHT22;250;47.712;7.508;2022-08-03T09:40:40;27.40;15.30
528;DHT22;250;47.712;7.508;2022-08-03T09:43:07;27.50;15.30
528;DHT22;250;47.712;7.508;2022-08-03T09:45:35;27.60;15.40
528;DHT22;250;47.712;7.508;2022-08-03T09:48:22;27.70;15.00
528;DHT22;250;47.712;7.508;2022-08-03T09:50:51;27.60;15.70
528;DHT22;250;47.712;7.508;2022-08-03T09:53:21;27.60;15.70
528;DHT22;250;47.712;7.508;2022-08-03T09:55:55;27.80;16.00
528;DHT22;250;47.712;7.508;2022-08-03T09:58:23;27.90;15.50
528;DHT22;250;47.712;7.508;2022-08-03T10:00:55;28.00;15.50
528;DHT22;250;47.712;7.508;2022-08-03T10:03:23;28.00;15.10
528;DHT22;250;47.712;7.508;2022-08-03T10:05:50;28.00;15.00
528;DHT22;250;47.712;7.508;2022-08-03T10:08:19;28.00;14.90
528;DHT22;250;47.712;7.508;2022-08-03T10:10:48;28.10;15.00
528;DHT22;250;47.712;7.508;2022-08-03T10:13:17;28.00;15.20
528;DHT22;250;47.712;7.508;2022-08-03T10:15:45;28.10;15.20
528;DHT22;250;47.712;7.508;2022-08-03T10:18:12;28.10;15.50
528;DHT22;250;47.712;7.508;2022-08-03T10:20:43;28.20;15.30
528;DHT22;250;47.712;7.508;2022-08-03T10:23:11;28.30;15.30
528;DHT22;250;47.712;7.508;2022-08-03T10:25:43;28.40;14.80
528;DHT22;250;47.712;7.508;2022-08-03T10:28:15;28.50;14.30
528;DHT22;250;47.712;7.508;2022-08-03T10:30:46;28.50;14.60
528;DHT22;250;47.712;7.508;2022-08-03T10:33:17;28.70;14.30
528;DHT22;250;47.712;7.508;2022-08-03T10:35:46;28.90;14.20
528;DHT22;250;47.712;7.508;2022-08-03T10:38:18;29.00;14.30
528;DHT22;250;47.712;7.508;2022-08-03T10:40:49;29.00;14.30
528;DHT22;250;47.712;7.508;2022-08-03T10:43:20;29.10;14.10
528;DHT22;250;47.712;7.508;2022-08-03T10:45:48;29.10;14.30
528;DHT22;250;47.712;7.508;2022-08-03T10:48:17;29.30;13.50
528;DHT22;250;47.712;7.508;2022-08-03T10:50:45;29.50;14.50
528;DHT22;250;47.712;7.508;2022-08-03T10:53:12;29.60;12.30
528;DHT22;250;47.712;7.508;2022-08-03T10:55:40;29.60;12.00
528;DHT22;250;47.712;7.508;2022-08-03T10:58:49;29.70;12.50
528;DHT22;250;47.712;7.508;2022-08-03T11:01:17;29.90;12.10
528;DHT22;250;47.712;7.508;2022-08-03T11:04:13;29.90;11.30
528;DHT22;250;47.712;7.508;2022-08-03T11:06:41;30.00;11.10
528;DHT22;250;47.712;7.508;2022-08-03T11:09:17;30.10;11.50
528;DHT22;250;47.712;7.508;2022-08-03T11:11:46;30.10;11.30
528;DHT22;250;47.712;7.508;2022-08-03T11:14:18;30.30;10.80
528;DHT22;250;47.712;7.508;2022-08-03T11:16:47;30.40;10.70
528;DHT22;250;47.712;7.508;2022-08-03T11:19:16;30.40;10.30
528;DHT22;250;47.712;7.508;2022-08-03T11:22:04;30.40;10.60
528;DHT22;250;47.712;7.508;2022-08-03T11:24:57;30.40;10.40
528;DHT22;250;47.712;7.508;2022-08-03T11:27:28;30.30;9.60
528;DHT22;250;47.712;7.508;2022-08-03T11:30:00;30.20;10.10
528;DHT22;250;47.712;7.508;2022-08-03T11:32:53;30.20;10.20
528;DHT22;250;47.712;7.508;2022-08-03T11:35:23;30.40;9.90
528;DHT22;250;47.712;7.508;2022-08-03T11:38:08;30.60;9.60
528;DHT22;250;47.712;7.508;2022-08-03T11:40:37;30.80;9.10
528;DHT22;250;47.712;7.508;2022-08-03T11:43:06;30.90;8.10
528;DHT22;250;47.712;7.508;2022-08-03T11:45:35;31.00;7.60
528;DHT22;250;47.712;7.508;2022-08-03T11:48:13;31.10;7.40
528;DHT22;250;47.712;7.508;2022-08-03T11:50:41;31.20;6.90
528;DHT22;250;47.712;7.508;2022-08-03T11:53:14;31.20;6.70
528;DHT22;250;47.712;7.508;2022-08-03T11:55:42;31.30;6.90
528;DHT22;250;47.712;7.508;2022-08-03T11:58:18;31.50;6.90
528;DHT22;250;47.712;7.508;2022-08-03T12:00:47;31.60;7.00
528;DHT22;250;47.712;7.508;2022-08-03T12:03:15;31.70;7.00
528;DHT22;250;47.712;7.508;2022-08-03T12:05:47;31.80;5.40
528;DHT22;250;47.712;7.508;2022-08-03T12:08:16;31.90;5.90
528;DHT22;250;47.712;7.508;2022-08-03T12:10:48;32.10;6.00
528;DHT22;250;47.712;7.508;2022-08-03T12:13:17;32.00;5.90
528;DHT22;250;47.712;7.508;2022-08-03T12:15:51;32.00;7.20
528;DHT22;250;47.712;7.508;2022-08-03T12:18:20;31.90;7.10
528;DHT22;250;47.712;7.508;2022-08-03T12:20:47;32.00;7.20
528;DHT22;250;47.712;7.508;2022-08-03T12:23:15;32.00;5.80
528;DHT22;250;47.712;7.508;2022-08-03T12:25:44;32.00;5.30
528;DHT22;250;47.712;7.508;2022-08-03T12:28:14;32.00;5.10
528;DHT22;250;47.712;7.508;2022-08-03T12:30:45;32.10;4.50
528;DHT22;250;47.712;7.508;2022-08-03T12:33:21;32.10;4.50
528;DHT22;250;47.712;7.508;2022-08-03T12:35:59;32.10;4.20
528;DHT22;250;47.712;7.508;2022-08-03T12:38:28;32.00;4.40
528;DHT22;250;47.712;7.508;2022-08-03T12:40:57;32.10;4.30
528;DHT22;250;47.712;7.508;2022-08-03T12:43:25;32.20;5.50
528;DHT22;250;47.712;7.508;2022-08-03T12:46:15;32.30;4.30
528;DHT22;250;47.712;7.508;2022-08-03T12:49:03;32.50;4.90
528;DHT22;250;47.712;7.508;2022-08-03T12:51:32;32.60;4.60
528;DHT22;250;47.712;7.508;2022-08-03T12:54:00;32.50;4.30
528;DHT22;250;47.712;7.508;2022-08-03T12:56:27;32.40;5.20
528;DHT22;250;47.712;7.508;2022-08-03T12:58:54;32.30;5.20
528;DHT22;250;47.712;7.508;2022-08-03T13:01:21;32.40;4.30
528;DHT22;250;47.712;7.508;2022-08-03T13:03:50;32.30;3.30
528;DHT22;250;47.712;7.508;2022-08-03T13:06:21;32.10;3.70
528;DHT22;250;47.712;7.508;2022-08-03T13:08:48;32.10;4.00
528;DHT22;250;47.712;7.508;2022-08-03T13:11:20;32.20;3.90
528;DHT22;250;47.712;7.508;2022-08-03T13:13:48;32.20;3.90
528;DHT22;250;47.712;7.508;2022-08-03T13:16:15;32.20;4.00
528;DHT22;250;47.712;7.508;2022-08-03T13:18:43;32.50;3.30
528;DHT22;250;47.712;7.508;2022-08-03T13:21:12;32.60;3.00
528;DHT22;250;47.712;7.508;2022-08-03T13:23:42;32.70;2.70
528;DHT22;250;47.712;7.508;2022-08-03T13:26:09;32.90;2.60
528;DHT22;250;47.712;7.508;2022-08-03T13:28:36;33.00;2.60
528;DHT22;250;47.712;7.508;2022-08-03T13:31:04;33.00;1.00
528;DHT22;250;47.712;7.508;2022-08-03T13:33:31;32.90;1.10
528;DHT22;250;47.712;7.508;2022-08-03T13:35:58;33.20;1.00
528;DHT22;250;47.712;7.508;2022-08-03T13:38:25;33.40;1.00
528;DHT22;250;47.712;7.508;2022-08-03T13:40:53;33.90;1.00
528;DHT22;250;47.712;7.508;2022-08-03T13:43:20;34.40;1.00
528;DHT22;250;47.712;7.508;2022-08-03T13:45:48;35.40;1.00
528;DHT22;250;47.712;7.508;2022-08-03T13:48:14;36.20;1.00
528;DHT22;250;47.712;7.508;2022-08-03T13:50:41;36.70;1.00
528;DHT22;250;47.712;7.508;2022-08-03T13:53:09;37.40;1.00
528;DHT22;250;47.712;7.508;2022-08-03T13:55:36;37.70;1.00
528;DHT22;250;47.712;7.508;2022-08-03T13:58:04;37.80;1.00
528;DHT22;250;47.712;7.508;2022-08-03T14:00:32;36.80;1.00
528;DHT22;250;47.712;7.508;2022-08-03T14:03:01;37.00;1.00
528;DHT22;250;47.712;7.508;2022-08-03T14:05:28;37.40;1.00
528;DHT22;250;47.712;7.508;2022-08-03T14:07:56;37.80;1.00
528;DHT22;250;47.712;7.508;2022-08-03T14:10:23;38.20;1.00
528;DHT22;250;47.712;7.508;2022-08-03T14:12:50;38.20;1.00
528;DHT22;250;47.712;7.508;2022-08-03T14:15:18;37.90;1.00
528;DHT22;250;47.712;7.508;2022-08-03T14:17:45;37.30;1.00
528;DHT22;250;47.712;7.508;2022-08-03T14:20:12;36.30;1.00
528;DHT22;250;47.712;7.508;2022-08-03T14:22:40;35.80;1.00
528;DHT22;250;47.712;7.508;2022-08-03T14:25:07;35.50;1.00
528;DHT22;250;47.712;7.508;2022-08-03T14:27:34;35.00;1.00
528;DHT22;250;47.712;7.508;2022-08-03T14:30:02;34.90;1.00
528;DHT22;250;47.712;7.508;2022-08-03T14:32:30;34.80;1.00
528;DHT22;250;47.712;7.508;2022-08-03T14:34:57;34.80;1.00
528;DHT22;250;47.712;7.508;2022-08-03T14:37:24;34.70;1.00
528;DHT22;250;47.712;7.508;2022-08-03T14:39:51;34.50;1.00
528;DHT22;250;47.712;7.508;2022-08-03T14:42:18;34.40;1.00
528;DHT22;250;47.712;7.508;2022-08-03T14:44:46;34.40;1.00
528;DHT22;250;47.712;7.508;2022-08-03T14:47:13;34.40;1.00
528;DHT22;250;47.712;7.508;2022-08-03T14:49:41;34.40;1.00
528;DHT22;250;47.712;7.508;2022-08-03T14:52:08;34.40;1.00
528;DHT22;250;47.712;7.508;2022-08-03T14:54:35;34.40;1.00
528;DHT22;250;47.712;7.508;2022-08-03T14:57:03;34.50;1.00
528;DHT22;250;47.712;7.508;2022-08-03T14:59:30;34.40;1.00
528;DHT22;250;47.712;7.508;2022-08-03T15:01:57;34.30;1.00
528;DHT22;250;47.712;7.508;2022-08-03T15:04:24;34.20;1.00
528;DHT22;250;47.712;7.508;2022-08-03T15:06:52;34.20;1.00
528;DHT22;250;47.712;7.508;2022-08-03T15:09:19;34.20;1.00
528;DHT22;250;47.712;7.508;2022-08-03T15:11:46;34.30;1.00
528;DHT22;250;47.712;7.508;2022-08-03T15:14:13;34.30;1.00
528;DHT22;250;47.712;7.508;2022-08-03T15:16:40;34.40;1.00
528;DHT22;250;47.712;7.508;2022-08-03T15:19:07;34.40;1.00
528;DHT22;250;47.712;7.508;2022-08-03T15:21:34;34.50;1.00
528;DHT22;250;47.712;7.508;2022-08-03T15:24:03;34.40;1.00
528;DHT22;250;47.712;7.508;2022-08-03T15:26:30;34.30;1.00
528;DHT22;250;47.712;7.508;2022-08-03T15:28:57;34.40;1.00
528;DHT22;250;47.712;7.508;2022-08-03T15:31:25;34.40;1.50
528;DHT22;250;47.712;7.508;2022-08-03T15:33:52;34.40;1.00
528;DHT22;250;47.712;7.508;2022-08-03T15:36:19;34.40;1.00
528;DHT22;250;47.712;7.508;2022-08-03T15:38:46;34.30;1.00
528;DHT22;250;47.712;7.508;2022-08-03T15:41:15;34.40;1.00
528;DHT22;250;47.712;7.508;2022-08-03T15:43:42;34.40;1.10
528;DHT22;250;47.712;7.508;2022-08-03T15:46:11;34.40;1.00
528;DHT22;250;47.712;7.508;2022-08-03T15:48:38;34.40;1.00
528;DHT22;250;47.712;7.508;2022-08-03T15:51:06;34.40;1.00
528;DHT22;250;47.712;7.508;2022-08-03T15:53:33;34.30;1.00
528;DHT22;250;47.712;7.508;2022-08-03T15:56:00;34.20;1.00
528;DHT22;250;47.712;7.508;2022-08-03T15:58:29;34.20;1.00
528;DHT22;250;47.712;7.508;2022-08-03T16:00:57;34.30;1.00
528;DHT22;250;47.712;7.508;2022-08-03T16:03:25;34.20;1.00
528;DHT22;250;47.712;7.508;2022-08-03T16:05:53;34.20;1.00
528;DHT22;250;47.712;7.508;2022-08-03T16:08:20;34.10;1.00
528;DHT22;250;47.712;7.508;2022-08-03T16:10:47;34.10;1.00
528;DHT22;250;47.712;7.508;2022-08-03T16:13:14;34.00;1.00
528;DHT22;250;47.712;7.508;2022-08-03T16:15:42;34.10;1.00
528;DHT22;250;47.712;7.508;2022-08-03T16:18:10;34.00;1.00
528;DHT22;250;47.712;7.508;2022-08-03T16:20:37;34.10;1.00
528;DHT22;250;47.712;7.508;2022-08-03T16:23:04;34.20;1.00
528;DHT22;250;47.712;7.508;2022-08-03T16:25:32;34.20;1.00
528;DHT22;250;47.712;7.508;2022-08-03T16:27:59;34.20;1.00
528;DHT22;250;47.712;7.508;2022-08-03T16:30:26;34.10;1.00
528;DHT22;250;47.712;7.508;2022-08-03T16:32:55;34.20;1.00
528;DHT22;250;47.712;7.508;2022-08-03T16:35:22;34.20;1.00
528;DHT22;250;47.712;7.508;2022-08-03T16:37:49;34.20;1.00
528;DHT22;250;47.712;7.508;2022-08-03T16:40:16;34.20;1.00
528;DHT22;250;47.712;7.508;2022-08-03T16:42:44;34.20;1.00
528;DHT22;250;47.712;7.508;2022-08-03T16:45:11;34.00;1.00
528;DHT22;250;47.712;7.508;2022-08-03T16:47:38;34.10;1.00
528;DHT22;250;47.712;7.508;2022-08-03T16:50:08;34.10;1.00
528;DHT22;250;47.712;7.508;2022-08-03T16:52:35;34.10;1.00